Fellowship — WDF3728 — position and weather

sailwx.info

Track history (hours):
 
Tides and Currents Weather Stations Pressure Air Temp Water Temp Dewpoint Dewpoint Depression Visibility Wind Speed Wind Dir Waves Ship Positions

Fellowship

Owner: International Fellowship Foundation, Inc., Green Cove Springs, FL. More information available from US FCC via Universal Licensing System and Coast Guard Vessel Documentation Center.

Last reported at 2017-Nov-30 18:23 UTC. Time now 2018-Jan-21 01:08 UTC.
Position N 24°16' W 110°21'.
Warning: this ship's position is 51 days out of date.

Length 13 m.

Type: Sailing vessel. MMSI: 367443340.

Date/timePositionNaut miles runAvg speedWind from/ knotsBaromVisibWave heightAir tempDewpointWater temp
2017-Nov-30 18:23N 24°16' W 110°21'2 6.1
2017-Nov-30 17:59N 24°14' W 110°20'3 5.2
2017-Nov-30 17:26N 24°12' W 110°18'3 6.0
2017-Nov-30 17:00N 24°09' W 110°20'  
2017-Nov-27 23:19N 24°09' W 110°20'1 3.8
2017-Nov-27 22:58N 24°10' W 110°19'4 5.3
2017-Nov-27 22:17N 24°14' W 110°20'2 6.5
2017-Nov-27 22:00N 24°15' W 110°21'  
2017-Nov-25 17:35N 24°16' W 110°21'0 2.3
2017-Nov-25 17:30N 24°16' W 110°21'2 4.9
2017-Nov-25 17:00N 24°14' W 110°20'3 5.0
2017-Nov-25 16:29N 24°12' W 110°18'2 5.0
2017-Nov-25 16:00N 24°10' W 110°19'  
Track history (hours):
 
Tides and Currents Weather Stations Pressure Air Temp Water Temp Dewpoint Dewpoint Depression Visibility Wind Speed Wind Dir Waves Ship Positions

Fellowship

Owner: International Fellowship Foundation, Inc., Green Cove Springs, FL. More information available from US FCC via Universal Licensing System and Coast Guard Vessel Documentation Center.

Last reported at 2017-Nov-30 18:23 UTC. Time now 2018-Jan-21 01:08 UTC.
Position N 24°16' W 110°21'.
Warning: this ship's position is 51 days out of date.

Length 13 m.

Type: Sailing vessel. MMSI: 367443340.

Date/timePositionNaut miles runAvg speedWind from/ knotsBaromVisibWave heightAir tempDewpointWater temp
2017-Nov-30 18:23N 24°16' W 110°21'2 6.1
2017-Nov-30 17:59N 24°14' W 110°20'3 5.2
2017-Nov-30 17:26N 24°12' W 110°18'3 6.0
2017-Nov-30 17:00N 24°09' W 110°20'  
2017-Nov-27 23:19N 24°09' W 110°20'1 3.8
2017-Nov-27 22:58N 24°10' W 110°19'4 5.3
2017-Nov-27 22:17N 24°14' W 110°20'2 6.5
2017-Nov-27 22:00N 24°15' W 110°21'  
2017-Nov-25 17:35N 24°16' W 110°21'0 2.3
2017-Nov-25 17:30N 24°16' W 110°21'2 4.9
2017-Nov-25 17:00N 24°14' W 110°20'3 5.0
2017-Nov-25 16:29N 24°12' W 110°18'2 5.0
2017-Nov-25 16:00N 24°10' W 110°19'  

Dump ship's entire track history